Terminal Aerodrome Forecast
Issued by NWS Wilmington, NC

Home | Current Version | Previous Version | Text Only | Print | Product List | Glossary On
Versions: 1 2 3 4 5 6 7 8 9 10 11 12 13 14 15 16 17
000
FTUS42 KILM 240525 AAA
TAFFLO
TAF AMD
KFLO 240525Z 2405/2506 08010KT P6SM VCSH OVC004
      TEMPO 2406/2410 1SM +SHRA BKN002
     FM241500 07008KT 2SM +SHRA OVC003
     FM250300 01008KT 2SM +SHRA OVC008=

USA.gov is the U.S. government's official web portal to all federal, state and local government web resources and services.